sensor_id;sensor_type;location;lat;lon;timestamp;pressure;altitude;pressure_sealevel;temperature
65569;BMP180;52211;50.154;8.682;2023-07-13T00:01:16;99975.00;;;25.70
65569;BMP180;52211;50.154;8.682;2023-07-13T00:03:43;99978.00;;;25.70
65569;BMP180;52211;50.154;8.682;2023-07-13T00:06:10;99981.00;;;25.70
65569;BMP180;52211;50.154;8.682;2023-07-13T00:08:40;99977.00;;;25.70
65569;BMP180;52211;50.154;8.682;2023-07-13T00:11:12;99979.00;;;25.70
65569;BMP180;52211;50.154;8.682;2023-07-13T00:13:42;99983.00;;;25.60
65569;BMP180;52211;50.154;8.682;2023-07-13T00:16:11;99990.00;;;25.60
65569;BMP180;52211;50.154;8.682;2023-07-13T00:18:45;99991.00;;;25.70
65569;BMP180;52211;50.154;8.682;2023-07-13T00:21:14;99996.00;;;25.70
65569;BMP180;52211;50.154;8.682;2023-07-13T00:23:44;99991.00;;;25.60
65569;BMP180;52211;50.154;8.682;2023-07-13T00:26:13;99990.00;;;25.70
65569;BMP180;52211;50.154;8.682;2023-07-13T00:28:41;99999.00;;;25.70
65569;BMP180;52211;50.154;8.682;2023-07-13T00:31:11;100003.00;;;25.70
65569;BMP180;52211;50.154;8.682;2023-07-13T00:33:40;99993.00;;;25.70
65569;BMP180;52211;50.154;8.682;2023-07-13T00:36:12;99994.00;;;25.70
65569;BMP180;52211;50.154;8.682;2023-07-13T00:38:40;99997.00;;;25.70
65569;BMP180;52211;50.154;8.682;2023-07-13T00:41:07;99994.00;;;25.70
65569;BMP180;52211;50.154;8.682;2023-07-13T00:43:40;99990.00;;;25.70
65569;BMP180;52211;50.154;8.682;2023-07-13T00:46:32;100000.00;;;25.60
65569;BMP180;52211;50.154;8.682;2023-07-13T00:49:09;100000.00;;;25.60
65569;BMP180;52211;50.154;8.682;2023-07-13T00:51:53;100003.00;;;25.60
65569;BMP180;52211;50.154;8.682;2023-07-13T00:54:30;100007.00;;;25.60
65569;BMP180;52211;50.154;8.682;2023-07-13T00:57:03;100000.00;;;25.60
65569;BMP180;52211;50.154;8.682;2023-07-13T00:59:37;99999.00;;;25.50
65569;BMP180;52211;50.154;8.682;2023-07-13T01:02:07;100002.00;;;25.50
65569;BMP180;52211;50.154;8.682;2023-07-13T01:04:34;100010.00;;;25.50
65569;BMP180;52211;50.154;8.682;2023-07-13T01:07:03;100010.00;;;25.40
65569;BMP180;52211;50.154;8.682;2023-07-13T01:09:35;100009.00;;;25.40
65569;BMP180;52211;50.154;8.682;2023-07-13T01:12:02;100000.00;;;25.30
65569;BMP180;52211;50.154;8.682;2023-07-13T01:14:30;100007.00;;;25.30
65569;BMP180;52211;50.154;8.682;2023-07-13T01:16:58;100000.00;;;25.30
65569;BMP180;52211;50.154;8.682;2023-07-13T01:19:43;100006.00;;;25.20
65569;BMP180;52211;50.154;8.682;2023-07-13T01:22:16;100009.00;;;25.20
65569;BMP180;52211;50.154;8.682;2023-07-13T01:24:47;100014.00;;;25.20
65569;BMP180;52211;50.154;8.682;2023-07-13T01:27:24;100003.00;;;25.20
65569;BMP180;52211;50.154;8.682;2023-07-13T01:29:57;100003.00;;;25.20
65569;BMP180;52211;50.154;8.682;2023-07-13T01:32:34;100003.00;;;25.10
65569;BMP180;52211;50.154;8.682;2023-07-13T01:35:01;100004.00;;;25.10
65569;BMP180;52211;50.154;8.682;2023-07-13T01:37:30;99994.00;;;25.10
65569;BMP180;52211;50.154;8.682;2023-07-13T01:40:04;99998.00;;;25.10
65569;BMP180;52211;50.154;8.682;2023-07-13T01:42:37;99999.00;;;25.10
65569;BMP180;52211;50.154;8.682;2023-07-13T01:45:08;100009.00;;;25.00
65569;BMP180;52211;50.154;8.682;2023-07-13T01:47:37;99999.00;;;25.00
65569;BMP180;52211;50.154;8.682;2023-07-13T01:50:07;99997.00;;;25.00
65569;BMP180;52211;50.154;8.682;2023-07-13T01:52:38;100000.00;;;25.00
65569;BMP180;52211;50.154;8.682;2023-07-13T01:55:06;99993.00;;;24.90
65569;BMP180;52211;50.154;8.682;2023-07-13T01:57:36;100008.00;;;24.90
65569;BMP180;52211;50.154;8.682;2023-07-13T02:00:05;100003.00;;;24.90
65569;BMP180;52211;50.154;8.682;2023-07-13T02:02:47;100013.00;;;24.90
65569;BMP180;52211;50.154;8.682;2023-07-13T02:05:17;100011.00;;;24.80
65569;BMP180;52211;50.154;8.682;2023-07-13T02:07:47;100008.00;;;24.80
65569;BMP180;52211;50.154;8.682;2023-07-13T02:10:17;100000.00;;;24.70
65569;BMP180;52211;50.154;8.682;2023-07-13T02:12:44;100004.00;;;24.70
65569;BMP180;52211;50.154;8.682;2023-07-13T02:15:12;100000.00;;;24.70
65569;BMP180;52211;50.154;8.682;2023-07-13T02:17:44;100002.00;;;24.60
65569;BMP180;52211;50.154;8.682;2023-07-13T02:20:16;100008.00;;;24.60
65569;BMP180;52211;50.154;8.682;2023-07-13T02:22:45;100004.00;;;24.60
65569;BMP180;52211;50.154;8.682;2023-07-13T02:25:12;100014.00;;;24.60
65569;BMP180;52211;50.154;8.682;2023-07-13T02:27:44;100005.00;;;24.50
65569;BMP180;52211;50.154;8.682;2023-07-13T02:30:15;100011.00;;;24.50
65569;BMP180;52211;50.154;8.682;2023-07-13T02:32:45;100007.00;;;24.50
65569;BMP180;52211;50.154;8.682;2023-07-13T02:35:14;100003.00;;;24.40
65569;BMP180;52211;50.154;8.682;2023-07-13T02:37:44;100011.00;;;24.40
65569;BMP180;52211;50.154;8.682;2023-07-13T02:40:16;100012.00;;;24.40
65569;BMP180;52211;50.154;8.682;2023-07-13T02:42:45;100014.00;;;24.40
65569;BMP180;52211;50.154;8.682;2023-07-13T02:45:15;100015.00;;;24.40
65569;BMP180;52211;50.154;8.682;2023-07-13T02:47:42;100010.00;;;24.40
65569;BMP180;52211;50.154;8.682;2023-07-13T02:50:10;100013.00;;;24.30
65569;BMP180;52211;50.154;8.682;2023-07-13T02:52:37;100019.00;;;24.30
65569;BMP180;52211;50.154;8.682;2023-07-13T02:55:05;100017.00;;;24.30
65569;BMP180;52211;50.154;8.682;2023-07-13T02:57:36;100025.00;;;24.30
65569;BMP180;52211;50.154;8.682;2023-07-13T03:00:07;100021.00;;;24.20
65569;BMP180;52211;50.154;8.682;2023-07-13T03:02:37;100025.00;;;24.20
65569;BMP180;52211;50.154;8.682;2023-07-13T03:05:04;100025.00;;;24.20
65569;BMP180;52211;50.154;8.682;2023-07-13T03:07:32;100034.00;;;24.10
65569;BMP180;52211;50.154;8.682;2023-07-13T03:10:03;100035.00;;;24.10
65569;BMP180;52211;50.154;8.682;2023-07-13T03:12:41;100035.00;;;24.10
65569;BMP180;52211;50.154;8.682;2023-07-13T03:15:22;100035.00;;;24.10
65569;BMP180;52211;50.154;8.682;2023-07-13T03:17:54;100044.00;;;24.00
65569;BMP180;52211;50.154;8.682;2023-07-13T03:20:22;100050.00;;;24.00
65569;BMP180;52211;50.154;8.682;2023-07-13T03:22:51;100041.00;;;24.00
65569;BMP180;52211;50.154;8.682;2023-07-13T03:25:21;100046.00;;;24.00
65569;BMP180;52211;50.154;8.682;2023-07-13T03:27:51;100053.00;;;23.90
65569;BMP180;52211;50.154;8.682;2023-07-13T03:30:23;100057.00;;;23.90
65569;BMP180;52211;50.154;8.682;2023-07-13T03:32:55;100055.00;;;23.80
65569;BMP180;52211;50.154;8.682;2023-07-13T03:35:27;100066.00;;;23.80
65569;BMP180;52211;50.154;8.682;2023-07-13T03:37:56;100073.00;;;23.80
65569;BMP180;52211;50.154;8.682;2023-07-13T03:40:25;100074.00;;;23.70
65569;BMP180;52211;50.154;8.682;2023-07-13T03:42:52;100076.00;;;23.70
65569;BMP180;52211;50.154;8.682;2023-07-13T03:45:22;100081.00;;;23.70
65569;BMP180;52211;50.154;8.682;2023-07-13T03:47:51;100079.00;;;23.60
65569;BMP180;52211;50.154;8.682;2023-07-13T03:50:18;100083.00;;;23.60
65569;BMP180;52211;50.154;8.682;2023-07-13T03:52:47;100086.00;;;23.60
65569;BMP180;52211;50.154;8.682;2023-07-13T03:55:17;100076.00;;;23.50
65569;BMP180;52211;50.154;8.682;2023-07-13T03:58:01;100081.00;;;23.50
65569;BMP180;52211;50.154;8.682;2023-07-13T04:00:47;100090.00;;;23.40
65569;BMP180;52211;50.154;8.682;2023-07-13T04:03:20;100088.00;;;23.50
65569;BMP180;52211;50.154;8.682;2023-07-13T04:05:49;100083.00;;;23.40
65569;BMP180;52211;50.154;8.682;2023-07-13T04:08:21;100084.00;;;23.50
65569;BMP180;52211;50.154;8.682;2023-07-13T04:10:55;100085.00;;;23.40
65569;BMP180;52211;50.154;8.682;2023-07-13T04:13:24;100094.00;;;23.40
65569;BMP180;52211;50.154;8.682;2023-07-13T04:15:52;100092.00;;;23.40
65569;BMP180;52211;50.154;8.682;2023-07-13T04:18:22;100084.00;;;23.40
65569;BMP180;52211;50.154;8.682;2023-07-13T04:20:50;100097.00;;;23.40
65569;BMP180;52211;50.154;8.682;2023-07-13T04:23:18;100098.00;;;23.40
65569;BMP180;52211;50.154;8.682;2023-07-13T04:25:47;100096.00;;;23.40
65569;BMP180;52211;50.154;8.682;2023-07-13T04:28:16;100093.00;;;23.40
65569;BMP180;52211;50.154;8.682;2023-07-13T04:30:49;100100.00;;;23.40
65569;BMP180;52211;50.154;8.682;2023-07-13T04:33:20;100097.00;;;23.40
65569;BMP180;52211;50.154;8.682;2023-07-13T04:35:54;100096.00;;;23.50
65569;BMP180;52211;50.154;8.682;2023-07-13T04:38:31;100094.00;;;23.40
65569;BMP180;52211;50.154;8.682;2023-07-13T04:41:05;100088.00;;;23.50
65569;BMP180;52211;50.154;8.682;2023-07-13T04:43:35;100088.00;;;23.50
65569;BMP180;52211;50.154;8.682;2023-07-13T04:46:12;100092.00;;;23.50
65569;BMP180;52211;50.154;8.682;2023-07-13T04:48:40;100097.00;;;23.50
65569;BMP180;52211;50.154;8.682;2023-07-13T04:51:10;100100.00;;;23.50
65569;BMP180;52211;50.154;8.682;2023-07-13T04:53:40;100098.00;;;23.50
65569;BMP180;52211;50.154;8.682;2023-07-13T04:56:11;100099.00;;;23.50
65569;BMP180;52211;50.154;8.682;2023-07-13T04:58:41;100091.00;;;23.50
65569;BMP180;52211;50.154;8.682;2023-07-13T05:01:12;100088.00;;;23.50
65569;BMP180;52211;50.154;8.682;2023-07-13T05:03:43;100096.00;;;23.50
65569;BMP180;52211;50.154;8.682;2023-07-13T05:06:10;100096.00;;;23.50
65569;BMP180;52211;50.154;8.682;2023-07-13T05:08:37;100091.00;;;23.60
65569;BMP180;52211;50.154;8.682;2023-07-13T05:11:06;100099.00;;;23.50
65569;BMP180;52211;50.154;8.682;2023-07-13T05:13:34;100107.00;;;23.50
65569;BMP180;52211;50.154;8.682;2023-07-13T05:16:06;100098.00;;;23.50
65569;BMP180;52211;50.154;8.682;2023-07-13T05:18:35;100101.00;;;23.50
65569;BMP180;52211;50.154;8.682;2023-07-13T05:21:09;100102.00;;;23.60
65569;BMP180;52211;50.154;8.682;2023-07-13T05:23:42;100101.00;;;23.60
65569;BMP180;52211;50.154;8.682;2023-07-13T05:26:10;100100.00;;;23.60
65569;BMP180;52211;50.154;8.682;2023-07-13T05:28:40;100106.00;;;23.60
65569;BMP180;52211;50.154;8.682;2023-07-13T05:31:10;100105.00;;;23.60
65569;BMP180;52211;50.154;8.682;2023-07-13T05:33:40;100105.00;;;23.60
65569;BMP180;52211;50.154;8.682;2023-07-13T05:36:11;100105.00;;;23.60
65569;BMP180;52211;50.154;8.682;2023-07-13T05:38:45;100115.00;;;23.70
65569;BMP180;52211;50.154;8.682;2023-07-13T05:41:16;100117.00;;;23.70
65569;BMP180;52211;50.154;8.682;2023-07-13T05:43:46;100114.00;;;23.70
65569;BMP180;52211;50.154;8.682;2023-07-13T05:46:15;100117.00;;;23.70
65569;BMP180;52211;50.154;8.682;2023-07-13T05:48:45;100122.00;;;23.70
65569;BMP180;52211;50.154;8.682;2023-07-13T05:51:15;100123.00;;;23.70
65569;BMP180;52211;50.154;8.682;2023-07-13T05:53:44;100121.00;;;23.70
65569;BMP180;52211;50.154;8.682;2023-07-13T05:56:13;100118.00;;;23.80
65569;BMP180;52211;50.154;8.682;2023-07-13T05:58:40;100125.00;;;23.80
65569;BMP180;52211;50.154;8.682;2023-07-13T06:01:14;100122.00;;;23.80
65569;BMP180;52211;50.154;8.682;2023-07-13T06:03:50;100135.00;;;23.90
65569;BMP180;52211;50.154;8.682;2023-07-13T06:06:22;100137.00;;;23.90
65569;BMP180;52211;50.154;8.682;2023-07-13T06:08:52;100136.00;;;24.00
65569;BMP180;52211;50.154;8.682;2023-07-13T06:11:26;100134.00;;;24.00
65569;BMP180;52211;50.154;8.682;2023-07-13T06:13:56;100134.00;;;24.00
65569;BMP180;52211;50.154;8.682;2023-07-13T06:16:23;100135.00;;;24.10
65569;BMP180;52211;50.154;8.682;2023-07-13T06:18:53;100140.00;;;24.10
65569;BMP180;52211;50.154;8.682;2023-07-13T06:21:23;100138.00;;;24.10
65569;BMP180;52211;50.154;8.682;2023-07-13T06:23:52;100128.00;;;24.10
65569;BMP180;52211;50.154;8.682;2023-07-13T06:26:22;100150.00;;;24.20
65569;BMP180;52211;50.154;8.682;2023-07-13T06:28:52;100151.00;;;24.20
65569;BMP180;52211;50.154;8.682;2023-07-13T06:31:21;100143.00;;;24.20
65569;BMP180;52211;50.154;8.682;2023-07-13T06:33:51;100142.00;;;24.30
65569;BMP180;52211;50.154;8.682;2023-07-13T06:36:18;100147.00;;;24.30
65569;BMP180;52211;50.154;8.682;2023-07-13T06:38:45;100150.00;;;24.40
65569;BMP180;52211;50.154;8.682;2023-07-13T06:41:14;100147.00;;;24.40
65569;BMP180;52211;50.154;8.682;2023-07-13T06:43:46;100146.00;;;24.40
65569;BMP180;52211;50.154;8.682;2023-07-13T06:46:15;100151.00;;;24.40
65569;BMP180;52211;50.154;8.682;2023-07-13T06:48:42;100154.00;;;24.50
65569;BMP180;52211;50.154;8.682;2023-07-13T06:51:11;100148.00;;;24.50
65569;BMP180;52211;50.154;8.682;2023-07-13T06:53:45;100158.00;;;24.60
65569;BMP180;52211;50.154;8.682;2023-07-13T06:56:19;100154.00;;;24.60
65569;BMP180;52211;50.154;8.682;2023-07-13T06:58:48;100147.00;;;24.70
65569;BMP180;52211;50.154;8.682;2023-07-13T07:01:15;100154.00;;;24.80
65569;BMP180;52211;50.154;8.682;2023-07-13T07:03:44;100157.00;;;24.80
65569;BMP180;52211;50.154;8.682;2023-07-13T07:06:16;100160.00;;;24.90
65569;BMP180;52211;50.154;8.682;2023-07-13T07:08:43;100164.00;;;25.00
65569;BMP180;52211;50.154;8.682;2023-07-13T07:11:22;100170.00;;;25.00
65569;BMP180;52211;50.154;8.682;2023-07-13T07:13:53;100167.00;;;25.00
65569;BMP180;52211;50.154;8.682;2023-07-13T07:16:24;100160.00;;;25.10
65569;BMP180;52211;50.154;8.682;2023-07-13T07:18:53;100170.00;;;25.10
65569;BMP180;52211;50.154;8.682;2023-07-13T07:21:22;100176.00;;;25.20
65569;BMP180;52211;50.154;8.682;2023-07-13T07:23:52;100167.00;;;25.30
65569;BMP180;52211;50.154;8.682;2023-07-13T07:26:21;100171.00;;;25.30
65569;BMP180;52211;50.154;8.682;2023-07-13T07:28:56;100170.00;;;25.40
65569;BMP180;52211;50.154;8.682;2023-07-13T07:31:28;100165.00;;;25.50
65569;BMP180;52211;50.154;8.682;2023-07-13T07:34:02;100173.00;;;25.50
65569;BMP180;52211;50.154;8.682;2023-07-13T07:36:32;100172.00;;;25.60
65569;BMP180;52211;50.154;8.682;2023-07-13T07:39:04;100179.00;;;25.60
65569;BMP180;52211;50.154;8.682;2023-07-13T07:41:33;100174.00;;;25.70
65569;BMP180;52211;50.154;8.682;2023-07-13T07:44:08;100168.00;;;25.70
65569;BMP180;52211;50.154;8.682;2023-07-13T07:46:39;100180.00;;;25.80
65569;BMP180;52211;50.154;8.682;2023-07-13T07:49:11;100181.00;;;25.90
65569;BMP180;52211;50.154;8.682;2023-07-13T07:51:38;100177.00;;;26.00
65569;BMP180;52211;50.154;8.682;2023-07-13T07:54:12;100183.00;;;26.00
65569;BMP180;52211;50.154;8.682;2023-07-13T07:56:45;100178.00;;;26.10
65569;BMP180;52211;50.154;8.682;2023-07-13T07:59:32;100182.00;;;26.10
65569;BMP180;52211;50.154;8.682;2023-07-13T08:02:05;100178.00;;;26.20
65569;BMP180;52211;50.154;8.682;2023-07-13T08:04:59;100170.00;;;26.30
65569;BMP180;52211;50.154;8.682;2023-07-13T08:07:33;100169.00;;;26.30
65569;BMP180;52211;50.154;8.682;2023-07-13T08:10:02;100166.00;;;26.40
65569;BMP180;52211;50.154;8.682;2023-07-13T08:12:38;100169.00;;;26.40
65569;BMP180;52211;50.154;8.682;2023-07-13T08:15:28;100177.00;;;26.50
65569;BMP180;52211;50.154;8.682;2023-07-13T08:17:55;100171.00;;;26.50
65569;BMP180;52211;50.154;8.682;2023-07-13T08:20:25;100167.00;;;26.60
65569;BMP180;52211;50.154;8.682;2023-07-13T08:22:54;100170.00;;;26.60
65569;BMP180;52211;50.154;8.682;2023-07-13T08:25:24;100173.00;;;26.70
65569;BMP180;52211;50.154;8.682;2023-07-13T08:27:53;100167.00;;;26.80
65569;BMP180;52211;50.154;8.682;2023-07-13T08:30:24;100164.00;;;26.80
65569;BMP180;52211;50.154;8.682;2023-07-13T08:32:53;100180.00;;;26.90
65569;BMP180;52211;50.154;8.682;2023-07-13T08:35:24;100173.00;;;26.90
65569;BMP180;52211;50.154;8.682;2023-07-13T08:37:54;100165.00;;;27.00
65569;BMP180;52211;50.154;8.682;2023-07-13T08:40:25;100182.00;;;27.00
65569;BMP180;52211;50.154;8.682;2023-07-13T08:42:59;100172.00;;;27.00
65569;BMP180;52211;50.154;8.682;2023-07-13T08:48:26;100164.00;;;27.10
65569;BMP180;52211;50.154;8.682;2023-07-13T08:51:12;100162.00;;;27.20
65569;BMP180;52211;50.154;8.682;2023-07-13T08:53:55;100159.00;;;27.30
65569;BMP180;52211;50.154;8.682;2023-07-13T08:56:28;100165.00;;;27.30
65569;BMP180;52211;50.154;8.682;2023-07-13T08:59:11;100156.00;;;27.40
65569;BMP180;52211;50.154;8.682;2023-07-13T09:02:00;100165.00;;;27.40
65569;BMP180;52211;50.154;8.682;2023-07-13T09:04:43;100161.00;;;27.50
65569;BMP180;52211;50.154;8.682;2023-07-13T09:10:20;100158.00;;;27.60
65569;BMP180;52211;50.154;8.682;2023-07-13T09:12:57;100170.00;;;27.60
65569;BMP180;52211;50.154;8.682;2023-07-13T09:15:41;100184.00;;;27.70
65569;BMP180;52211;50.154;8.682;2023-07-13T09:18:38;100169.00;;;27.70
65569;BMP180;52211;50.154;8.682;2023-07-13T09:21:17;100171.00;;;27.70
65569;BMP180;52211;50.154;8.682;2023-07-13T09:23:47;100169.00;;;27.70
65569;BMP180;52211;50.154;8.682;2023-07-13T09:26:23;100161.00;;;27.70
65569;BMP180;52211;50.154;8.682;2023-07-13T09:29:06;100163.00;;;27.70
65569;BMP180;52211;50.154;8.682;2023-07-13T09:31:47;100155.00;;;27.70
65569;BMP180;52211;50.154;8.682;2023-07-13T09:34:17;100164.00;;;27.80
65569;BMP180;52211;50.154;8.682;2023-07-13T09:36:48;100164.00;;;27.90
65569;BMP180;52211;50.154;8.682;2023-07-13T09:39:34;100153.00;;;27.90
65569;BMP180;52211;50.154;8.682;2023-07-13T09:45:01;100160.00;;;28.10
65569;BMP180;52211;50.154;8.682;2023-07-13T09:47:39;100156.00;;;28.30
65569;BMP180;52211;50.154;8.682;2023-07-13T09:50:16;100165.00;;;28.40
65569;BMP180;52211;50.154;8.682;2023-07-13T09:52:49;100154.00;;;28.40
65569;BMP180;52211;50.154;8.682;2023-07-13T09:55:37;100161.00;;;28.40
65569;BMP180;52211;50.154;8.682;2023-07-13T09:58:16;100167.00;;;28.50
65569;BMP180;52211;50.154;8.682;2023-07-13T10:01:04;100168.00;;;28.50
65569;BMP180;52211;50.154;8.682;2023-07-13T10:03:38;100158.00;;;28.50
65569;BMP180;52211;50.154;8.682;2023-07-13T10:06:17;100162.00;;;28.60
65569;BMP180;52211;50.154;8.682;2023-07-13T10:08:56;100154.00;;;28.70
65569;BMP180;52211;50.154;8.682;2023-07-13T10:11:28;100157.00;;;28.80
65569;BMP180;52211;50.154;8.682;2023-07-13T10:14:08;100148.00;;;28.90
65569;BMP180;52211;50.154;8.682;2023-07-13T10:16:39;100163.00;;;28.90
65569;BMP180;52211;50.154;8.682;2023-07-13T10:19:27;100152.00;;;28.90
65569;BMP180;52211;50.154;8.682;2023-07-13T10:22:14;100156.00;;;29.00
65569;BMP180;52211;50.154;8.682;2023-07-13T10:24:42;100157.00;;;29.10
65569;BMP180;52211;50.154;8.682;2023-07-13T10:27:20;100156.00;;;29.10
65569;BMP180;52211;50.154;8.682;2023-07-13T10:30:20;100149.00;;;29.20
65569;BMP180;52211;50.154;8.682;2023-07-13T10:32:50;100156.00;;;29.30
65569;BMP180;52211;50.154;8.682;2023-07-13T10:35:20;100162.00;;;29.40
65569;BMP180;52211;50.154;8.682;2023-07-13T10:38:03;100170.00;;;29.40
65569;BMP180;52211;50.154;8.682;2023-07-13T10:41:07;100149.00;;;29.40
65569;BMP180;52211;50.154;8.682;2023-07-13T10:43:42;100156.00;;;29.50
65569;BMP180;52211;50.154;8.682;2023-07-13T10:46:14;100157.00;;;29.60
65569;BMP180;52211;50.154;8.682;2023-07-13T10:48:48;100152.00;;;29.70
65569;BMP180;52211;50.154;8.682;2023-07-13T10:51:20;100162.00;;;29.80
65569;BMP180;52211;50.154;8.682;2023-07-13T10:56:48;100160.00;;;29.80
65569;BMP180;52211;50.154;8.682;2023-07-13T10:59:27;100154.00;;;29.70
65569;BMP180;52211;50.154;8.682;2023-07-13T11:02:10;100161.00;;;29.70
65569;BMP180;52211;50.154;8.682;2023-07-13T11:04:45;100151.00;;;29.70
65569;BMP180;52211;50.154;8.682;2023-07-13T11:07:25;100153.00;;;29.80
65569;BMP180;52211;50.154;8.682;2023-07-13T11:09:58;100157.00;;;29.90
65569;BMP180;52211;50.154;8.682;2023-07-13T11:12:53;100149.00;;;30.10
65569;BMP180;52211;50.154;8.682;2023-07-13T11:15:44;100150.00;;;30.30
65569;BMP180;52211;50.154;8.682;2023-07-13T11:18:24;100148.00;;;30.60
65569;BMP180;52211;50.154;8.682;2023-07-13T11:21:23;100147.00;;;30.80
65569;BMP180;52211;50.154;8.682;2023-07-13T11:26:51;100153.00;;;31.30
65569;BMP180;52211;50.154;8.682;2023-07-13T11:34:51;100152.00;;;31.70
65569;BMP180;52211;50.154;8.682;2023-07-13T11:37:24;100152.00;;;31.70
65569;BMP180;52211;50.154;8.682;2023-07-13T11:39:58;100156.00;;;31.70
65569;BMP180;52211;50.154;8.682;2023-07-13T11:42:28;100146.00;;;31.70
65569;BMP180;52211;50.154;8.682;2023-07-13T11:44:59;100153.00;;;31.70
65569;BMP180;52211;50.154;8.682;2023-07-13T11:47:45;100142.00;;;31.70
65569;BMP180;52211;50.154;8.682;2023-07-13T11:50:21;100153.00;;;31.70
65569;BMP180;52211;50.154;8.682;2023-07-13T11:52:57;100139.00;;;31.80
65569;BMP180;52211;50.154;8.682;2023-07-13T11:55:31;100147.00;;;32.00
65569;BMP180;52211;50.154;8.682;2023-07-13T11:58:01;100149.00;;;32.10
65569;BMP180;52211;50.154;8.682;2023-07-13T12:00:32;100147.00;;;32.20
65569;BMP180;52211;50.154;8.682;2023-07-13T12:03:03;100153.00;;;32.10
65569;BMP180;52211;50.154;8.682;2023-07-13T12:05:34;100159.00;;;32.00
65569;BMP180;52211;50.154;8.682;2023-07-13T12:08:09;100147.00;;;31.90
65569;BMP180;52211;50.154;8.682;2023-07-13T12:11:02;100150.00;;;31.80
65569;BMP180;52211;50.154;8.682;2023-07-13T12:13:38;100142.00;;;31.90
65569;BMP180;52211;50.154;8.682;2023-07-13T12:16:23;100147.00;;;31.90
65569;BMP180;52211;50.154;8.682;2023-07-13T12:18:59;100151.00;;;31.80
65569;BMP180;52211;50.154;8.682;2023-07-13T12:21:38;100148.00;;;31.80
65569;BMP180;52211;50.154;8.682;2023-07-13T12:24:19;100146.00;;;31.80
65569;BMP180;52211;50.154;8.682;2023-07-13T12:26:59;100150.00;;;31.70
65569;BMP180;52211;50.154;8.682;2023-07-13T12:29:32;100167.00;;;31.70
65569;BMP180;52211;50.154;8.682;2023-07-13T12:31:59;100164.00;;;31.60
65569;BMP180;52211;50.154;8.682;2023-07-13T12:34:29;100157.00;;;31.50
65569;BMP180;52211;50.154;8.682;2023-07-13T12:37:02;100151.00;;;31.40
65569;BMP180;52211;50.154;8.682;2023-07-13T12:39:45;100168.00;;;31.20
65569;BMP180;52211;50.154;8.682;2023-07-13T12:42:28;100162.00;;;31.20
65569;BMP180;52211;50.154;8.682;2023-07-13T12:45:18;100166.00;;;31.10
65569;BMP180;52211;50.154;8.682;2023-07-13T12:47:50;100160.00;;;31.00
65569;BMP180;52211;50.154;8.682;2023-07-13T12:50:29;100157.00;;;30.90
65569;BMP180;52211;50.154;8.682;2023-07-13T12:53:03;100162.00;;;30.90
65569;BMP180;52211;50.154;8.682;2023-07-13T12:55:55;100171.00;;;30.80
65569;BMP180;52211;50.154;8.682;2023-07-13T12:58:40;100161.00;;;30.80
65569;BMP180;52211;50.154;8.682;2023-07-13T13:01:17;100167.00;;;30.70
65569;BMP180;52211;50.154;8.682;2023-07-13T13:03:51;100167.00;;;30.80
65569;BMP180;52211;50.154;8.682;2023-07-13T13:06:32;100169.00;;;30.70
65569;BMP180;52211;50.154;8.682;2023-07-13T13:09:00;100172.00;;;30.70
65569;BMP180;52211;50.154;8.682;2023-07-13T13:11:34;100179.00;;;30.60
65569;BMP180;52211;50.154;8.682;2023-07-13T13:14:06;100172.00;;;30.50
65569;BMP180;52211;50.154;8.682;2023-07-13T13:16:48;100179.00;;;30.40
65569;BMP180;52211;50.154;8.682;2023-07-13T13:21:48;100182.00;;;30.40
65569;BMP180;52211;50.154;8.682;2023-07-13T13:24:22;100174.00;;;30.30
65569;BMP180;52211;50.154;8.682;2023-07-13T13:26:51;100171.00;;;30.30
65569;BMP180;52211;50.154;8.682;2023-07-13T13:29:22;100173.00;;;30.30
65569;BMP180;52211;50.154;8.682;2023-07-13T13:31:55;100175.00;;;30.30
65569;BMP180;52211;50.154;8.682;2023-07-13T13:34:24;100180.00;;;30.30
65569;BMP180;52211;50.154;8.682;2023-07-13T13:36:53;100184.00;;;30.40
65569;BMP180;52211;50.154;8.682;2023-07-13T13:39:35;100182.00;;;30.50
65569;BMP180;52211;50.154;8.682;2023-07-13T13:42:03;100189.00;;;30.60
65569;BMP180;52211;50.154;8.682;2023-07-13T13:44:33;100188.00;;;30.70
65569;BMP180;52211;50.154;8.682;2023-07-13T13:47:00;100200.00;;;30.80
65569;BMP180;52211;50.154;8.682;2023-07-13T13:49:28;100184.00;;;30.80
65569;BMP180;52211;50.154;8.682;2023-07-13T13:51:58;100187.00;;;30.70
65569;BMP180;52211;50.154;8.682;2023-07-13T13:54:28;100192.00;;;30.60
65569;BMP180;52211;50.154;8.682;2023-07-13T13:57:00;100193.00;;;30.60
65569;BMP180;52211;50.154;8.682;2023-07-13T13:59:29;100189.00;;;30.70
65569;BMP180;52211;50.154;8.682;2023-07-13T14:01:59;100199.00;;;30.70
65569;BMP180;52211;50.154;8.682;2023-07-13T14:04:28;100187.00;;;30.70
65569;BMP180;52211;50.154;8.682;2023-07-13T14:06:56;100185.00;;;30.70
65569;BMP180;52211;50.154;8.682;2023-07-13T14:09:22;100195.00;;;30.70
65569;BMP180;52211;50.154;8.682;2023-07-13T14:11:51;100192.00;;;30.70
65569;BMP180;52211;50.154;8.682;2023-07-13T14:14:23;100194.00;;;30.70
65569;BMP180;52211;50.154;8.682;2023-07-13T14:16:54;100194.00;;;30.70
65569;BMP180;52211;50.154;8.682;2023-07-13T14:19:23;100182.00;;;30.90
65569;BMP180;52211;50.154;8.682;2023-07-13T14:21:55;100188.00;;;31.00
65569;BMP180;52211;50.154;8.682;2023-07-13T14:24:27;100188.00;;;31.10
65569;BMP180;52211;50.154;8.682;2023-07-13T14:27:01;100189.00;;;31.10
65569;BMP180;52211;50.154;8.682;2023-07-13T14:29:31;100202.00;;;31.10
65569;BMP180;52211;50.154;8.682;2023-07-13T14:32:02;100193.00;;;31.10
65569;BMP180;52211;50.154;8.682;2023-07-13T14:34:32;100200.00;;;31.00
65569;BMP180;52211;50.154;8.682;2023-07-13T14:37:02;100204.00;;;31.00
65569;BMP180;52211;50.154;8.682;2023-07-13T14:39:31;100211.00;;;31.00
65569;BMP180;52211;50.154;8.682;2023-07-13T14:41:58;100212.00;;;30.90
65569;BMP180;52211;50.154;8.682;2023-07-13T14:44:30;100209.00;;;30.80
65569;BMP180;52211;50.154;8.682;2023-07-13T14:47:02;100221.00;;;30.70
65569;BMP180;52211;50.154;8.682;2023-07-13T14:49:42;100213.00;;;30.60
65569;BMP180;52211;50.154;8.682;2023-07-13T14:52:18;100214.00;;;30.50